sensor_id;sensor_type;location;lat;lon;timestamp;P1;durP1;ratioP1;P2;durP2;ratioP2
10643;SDS011;5370;50.132;8.626;2022-10-15T00:00:42;5.97;;;4.67;;
10643;SDS011;5370;50.132;8.626;2022-10-15T00:03:08;5.50;;;4.60;;
10643;SDS011;5370;50.132;8.626;2022-10-15T00:05:37;5.17;;;4.77;;
10643;SDS011;5370;50.132;8.626;2022-10-15T00:08:09;5.63;;;5.13;;
10643;SDS011;5370;50.132;8.626;2022-10-15T00:10:35;8.33;;;5.50;;
10643;SDS011;5370;50.132;8.626;2022-10-15T00:13:01;5.53;;;5.03;;
10643;SDS011;5370;50.132;8.626;2022-10-15T00:15:27;5.83;;;5.23;;
10643;SDS011;5370;50.132;8.626;2022-10-15T00:17:53;6.00;;;5.50;;
10643;SDS011;5370;50.132;8.626;2022-10-15T00:20:19;5.60;;;5.10;;
10643;SDS011;5370;50.132;8.626;2022-10-15T00:22:45;5.23;;;4.77;;
10643;SDS011;5370;50.132;8.626;2022-10-15T00:25:10;6.13;;;5.07;;
10643;SDS011;5370;50.132;8.626;2022-10-15T00:27:36;7.47;;;5.80;;
10643;SDS011;5370;50.132;8.626;2022-10-15T00:30:02;6.73;;;5.70;;
10643;SDS011;5370;50.132;8.626;2022-10-15T00:32:29;6.60;;;5.80;;
10643;SDS011;5370;50.132;8.626;2022-10-15T00:34:55;5.23;;;4.73;;
10643;SDS011;5370;50.132;8.626;2022-10-15T00:37:21;6.60;;;5.93;;
10643;SDS011;5370;50.132;8.626;2022-10-15T00:39:46;8.20;;;6.27;;
10643;SDS011;5370;50.132;8.626;2022-10-15T00:42:12;7.13;;;5.57;;
10643;SDS011;5370;50.132;8.626;2022-10-15T00:44:54;6.30;;;5.70;;
10643;SDS011;5370;50.132;8.626;2022-10-15T00:47:29;8.00;;;6.67;;
10643;SDS011;5370;50.132;8.626;2022-10-15T00:50:21;6.67;;;6.07;;
10643;SDS011;5370;50.132;8.626;2022-10-15T00:53:02;5.93;;;5.40;;
10643;SDS011;5370;50.132;8.626;2022-10-15T00:55:33;6.87;;;6.10;;
10643;SDS011;5370;50.132;8.626;2022-10-15T00:58:06;7.57;;;6.57;;
10643;SDS011;5370;50.132;8.626;2022-10-15T01:00:34;10.67;;;6.33;;
10643;SDS011;5370;50.132;8.626;2022-10-15T01:03:00;9.63;;;6.33;;
10643;SDS011;5370;50.132;8.626;2022-10-15T01:05:25;9.23;;;7.03;;
10643;SDS011;5370;50.132;8.626;2022-10-15T01:07:51;8.40;;;7.40;;
10643;SDS011;5370;50.132;8.626;2022-10-15T01:10:16;8.57;;;6.73;;
10643;SDS011;5370;50.132;8.626;2022-10-15T01:15:33;10.77;;;7.37;;
10643;SDS011;5370;50.132;8.626;2022-10-15T01:18:19;11.47;;;8.10;;
10643;SDS011;5370;50.132;8.626;2022-10-15T01:32:21;9.63;;;7.90;;
10643;SDS011;5370;50.132;8.626;2022-10-15T01:37:45;10.37;;;8.40;;
10643;SDS011;5370;50.132;8.626;2022-10-15T01:40:22;11.77;;;8.87;;
10643;SDS011;5370;50.132;8.626;2022-10-15T01:42:58;9.60;;;8.60;;
10643;SDS011;5370;50.132;8.626;2022-10-15T01:45:33;11.97;;;9.47;;
10643;SDS011;5370;50.132;8.626;2022-10-15T01:48:07;9.73;;;8.57;;
10643;SDS011;5370;50.132;8.626;2022-10-15T01:50:41;12.80;;;9.37;;
10643;SDS011;5370;50.132;8.626;2022-10-15T01:53:10;12.80;;;10.37;;
10643;SDS011;5370;50.132;8.626;2022-10-15T01:55:43;15.03;;;10.00;;
10643;SDS011;5370;50.132;8.626;2022-10-15T01:58:11;14.70;;;10.80;;
10643;SDS011;5370;50.132;8.626;2022-10-15T02:00:40;14.98;;;11.20;;
10643;SDS011;5370;50.132;8.626;2022-10-15T02:03:06;11.60;;;10.25;;
10643;SDS011;5370;50.132;8.626;2022-10-15T02:05:41;17.70;;;12.03;;
10643;SDS011;5370;50.132;8.626;2022-10-15T02:11:04;14.47;;;11.13;;
10643;SDS011;5370;50.132;8.626;2022-10-15T02:13:42;15.53;;;11.40;;
10643;SDS011;5370;50.132;8.626;2022-10-15T02:16:37;18.47;;;11.20;;
10643;SDS011;5370;50.132;8.626;2022-10-15T02:19:11;16.43;;;12.30;;
10643;SDS011;5370;50.132;8.626;2022-10-15T02:24:16;16.87;;;11.93;;
10643;SDS011;5370;50.132;8.626;2022-10-15T02:26:57;16.07;;;11.60;;
10643;SDS011;5370;50.132;8.626;2022-10-15T02:29:26;17.27;;;11.73;;
10643;SDS011;5370;50.132;8.626;2022-10-15T02:31:55;16.80;;;12.13;;
10643;SDS011;5370;50.132;8.626;2022-10-15T02:34:24;17.17;;;12.23;;
10643;SDS011;5370;50.132;8.626;2022-10-15T02:36:54;18.50;;;12.90;;
10643;SDS011;5370;50.132;8.626;2022-10-15T02:39:23;23.20;;;12.73;;
10643;SDS011;5370;50.132;8.626;2022-10-15T02:41:52;22.47;;;13.23;;
10643;SDS011;5370;50.132;8.626;2022-10-15T02:44:18;24.03;;;13.90;;
10643;SDS011;5370;50.132;8.626;2022-10-15T02:46:44;20.33;;;12.87;;
10643;SDS011;5370;50.132;8.626;2022-10-15T02:49:10;21.73;;;13.97;;
10643;SDS011;5370;50.132;8.626;2022-10-15T02:51:35;19.53;;;14.03;;
10643;SDS011;5370;50.132;8.626;2022-10-15T02:54:02;19.37;;;13.27;;
10643;SDS011;5370;50.132;8.626;2022-10-15T02:56:29;24.90;;;14.63;;
10643;SDS011;5370;50.132;8.626;2022-10-15T02:58:55;22.70;;;15.13;;
10643;SDS011;5370;50.132;8.626;2022-10-15T03:01:21;24.93;;;16.10;;
10643;SDS011;5370;50.132;8.626;2022-10-15T03:03:46;24.10;;;15.47;;
10643;SDS011;5370;50.132;8.626;2022-10-15T03:06:12;26.87;;;15.70;;
10643;SDS011;5370;50.132;8.626;2022-10-15T03:08:38;24.67;;;15.33;;
10643;SDS011;5370;50.132;8.626;2022-10-15T03:11:04;27.57;;;15.97;;
10643;SDS011;5370;50.132;8.626;2022-10-15T03:13:29;25.40;;;15.77;;
10643;SDS011;5370;50.132;8.626;2022-10-15T03:15:55;24.43;;;15.27;;
10643;SDS011;5370;50.132;8.626;2022-10-15T03:18:21;23.93;;;15.43;;
10643;SDS011;5370;50.132;8.626;2022-10-15T03:20:54;26.97;;;15.17;;
10643;SDS011;5370;50.132;8.626;2022-10-15T03:23:20;25.23;;;15.67;;
10643;SDS011;5370;50.132;8.626;2022-10-15T03:25:46;22.97;;;14.23;;
10643;SDS011;5370;50.132;8.626;2022-10-15T03:28:11;24.87;;;15.10;;
10643;SDS011;5370;50.132;8.626;2022-10-15T03:30:37;26.23;;;15.37;;
10643;SDS011;5370;50.132;8.626;2022-10-15T03:33:02;24.30;;;15.57;;
10643;SDS011;5370;50.132;8.626;2022-10-15T03:35:28;24.03;;;14.70;;
10643;SDS011;5370;50.132;8.626;2022-10-15T03:37:53;25.40;;;15.37;;
10643;SDS011;5370;50.132;8.626;2022-10-15T03:40:19;24.63;;;16.10;;
10643;SDS011;5370;50.132;8.626;2022-10-15T03:42:48;25.47;;;15.70;;
10643;SDS011;5370;50.132;8.626;2022-10-15T03:45:18;30.03;;;16.43;;
10643;SDS011;5370;50.132;8.626;2022-10-15T03:47:44;27.53;;;16.33;;
10643;SDS011;5370;50.132;8.626;2022-10-15T03:50:09;26.23;;;16.63;;
10643;SDS011;5370;50.132;8.626;2022-10-15T03:52:35;24.87;;;15.40;;
10643;SDS011;5370;50.132;8.626;2022-10-15T03:55:01;27.40;;;16.93;;
10643;SDS011;5370;50.132;8.626;2022-10-15T03:57:28;28.10;;;16.60;;
10643;SDS011;5370;50.132;8.626;2022-10-15T03:59:53;29.93;;;15.60;;
10643;SDS011;5370;50.132;8.626;2022-10-15T04:02:19;29.17;;;16.57;;
10643;SDS011;5370;50.132;8.626;2022-10-15T04:04:45;29.33;;;15.67;;
10643;SDS011;5370;50.132;8.626;2022-10-15T04:07:10;31.80;;;17.03;;
10643;SDS011;5370;50.132;8.626;2022-10-15T04:09:36;28.67;;;15.90;;
10643;SDS011;5370;50.132;8.626;2022-10-15T04:12:02;28.17;;;15.60;;
10643;SDS011;5370;50.132;8.626;2022-10-15T04:14:28;30.20;;;14.93;;
10643;SDS011;5370;50.132;8.626;2022-10-15T04:16:54;24.60;;;14.67;;
10643;SDS011;5370;50.132;8.626;2022-10-15T04:19:20;31.77;;;15.90;;
10643;SDS011;5370;50.132;8.626;2022-10-15T04:21:46;29.47;;;14.80;;
10643;SDS011;5370;50.132;8.626;2022-10-15T04:24:11;27.83;;;16.30;;
10643;SDS011;5370;50.132;8.626;2022-10-15T04:26:37;29.00;;;16.20;;
10643;SDS011;5370;50.132;8.626;2022-10-15T04:29:03;25.50;;;15.83;;
10643;SDS011;5370;50.132;8.626;2022-10-15T04:31:28;23.70;;;14.70;;
10643;SDS011;5370;50.132;8.626;2022-10-15T04:33:54;25.50;;;14.53;;
10643;SDS011;5370;50.132;8.626;2022-10-15T04:36:19;23.50;;;14.30;;
10643;SDS011;5370;50.132;8.626;2022-10-15T04:38:45;22.10;;;14.60;;
10643;SDS011;5370;50.132;8.626;2022-10-15T04:41:11;21.83;;;13.80;;
10643;SDS011;5370;50.132;8.626;2022-10-15T04:43:37;25.67;;;14.07;;
10643;SDS011;5370;50.132;8.626;2022-10-15T04:46:04;24.77;;;14.30;;
10643;SDS011;5370;50.132;8.626;2022-10-15T04:48:32;27.47;;;14.60;;
10643;SDS011;5370;50.132;8.626;2022-10-15T04:51:06;24.57;;;13.93;;
10643;SDS011;5370;50.132;8.626;2022-10-15T04:53:36;26.10;;;13.77;;
10643;SDS011;5370;50.132;8.626;2022-10-15T04:56:06;29.47;;;14.47;;
10643;SDS011;5370;50.132;8.626;2022-10-15T04:58:34;26.43;;;14.10;;
10643;SDS011;5370;50.132;8.626;2022-10-15T05:01:01;28.00;;;14.57;;
10643;SDS011;5370;50.132;8.626;2022-10-15T05:03:29;31.80;;;15.07;;
10643;SDS011;5370;50.132;8.626;2022-10-15T05:05:58;28.63;;;14.50;;
10643;SDS011;5370;50.132;8.626;2022-10-15T05:08:26;32.27;;;14.17;;
10643;SDS011;5370;50.132;8.626;2022-10-15T05:10:53;31.63;;;15.13;;
10643;SDS011;5370;50.132;8.626;2022-10-15T05:13:18;28.40;;;15.67;;
10643;SDS011;5370;50.132;8.626;2022-10-15T05:15:44;34.67;;;16.80;;
10643;SDS011;5370;50.132;8.626;2022-10-15T05:18:09;30.43;;;16.60;;
10643;SDS011;5370;50.132;8.626;2022-10-15T05:20:35;35.37;;;17.60;;
10643;SDS011;5370;50.132;8.626;2022-10-15T05:23:00;34.60;;;17.10;;
10643;SDS011;5370;50.132;8.626;2022-10-15T05:25:28;35.47;;;17.80;;
10643;SDS011;5370;50.132;8.626;2022-10-15T05:27:54;33.53;;;16.70;;
10643;SDS011;5370;50.132;8.626;2022-10-15T05:30:20;34.93;;;17.00;;
10643;SDS011;5370;50.132;8.626;2022-10-15T05:32:45;44.70;;;21.93;;
10643;SDS011;5370;50.132;8.626;2022-10-15T05:35:14;40.00;;;19.97;;
10643;SDS011;5370;50.132;8.626;2022-10-15T05:37:40;38.17;;;18.47;;
10643;SDS011;5370;50.132;8.626;2022-10-15T05:40:06;43.47;;;18.63;;
10643;SDS011;5370;50.132;8.626;2022-10-15T05:42:32;42.67;;;16.87;;
10643;SDS011;5370;50.132;8.626;2022-10-15T05:44:57;40.23;;;18.13;;
10643;SDS011;5370;50.132;8.626;2022-10-15T05:47:23;41.60;;;19.23;;
10643;SDS011;5370;50.132;8.626;2022-10-15T05:49:48;42.50;;;18.40;;
10643;SDS011;5370;50.132;8.626;2022-10-15T05:52:14;45.77;;;18.13;;
10643;SDS011;5370;50.132;8.626;2022-10-15T05:54:40;49.23;;;19.23;;
10643;SDS011;5370;50.132;8.626;2022-10-15T05:57:06;42.27;;;19.03;;
10643;SDS011;5370;50.132;8.626;2022-10-15T05:59:31;37.87;;;17.57;;
10643;SDS011;5370;50.132;8.626;2022-10-15T06:01:57;43.43;;;19.03;;
10643;SDS011;5370;50.132;8.626;2022-10-15T06:04:22;42.17;;;18.00;;
10643;SDS011;5370;50.132;8.626;2022-10-15T06:06:48;35.90;;;15.97;;
10643;SDS011;5370;50.132;8.626;2022-10-15T06:09:13;35.53;;;16.83;;
10643;SDS011;5370;50.132;8.626;2022-10-15T06:11:39;32.83;;;15.57;;
10643;SDS011;5370;50.132;8.626;2022-10-15T06:14:05;31.27;;;14.30;;
10643;SDS011;5370;50.132;8.626;2022-10-15T06:16:30;26.20;;;13.63;;
10643;SDS011;5370;50.132;8.626;2022-10-15T06:18:57;24.90;;;12.87;;
10643;SDS011;5370;50.132;8.626;2022-10-15T06:21:23;20.67;;;12.60;;
10643;SDS011;5370;50.132;8.626;2022-10-15T06:23:49;21.17;;;11.17;;
10643;SDS011;5370;50.132;8.626;2022-10-15T06:26:14;20.47;;;10.97;;
10643;SDS011;5370;50.132;8.626;2022-10-15T06:28:40;24.07;;;11.03;;
10643;SDS011;5370;50.132;8.626;2022-10-15T06:31:06;20.90;;;10.93;;
10643;SDS011;5370;50.132;8.626;2022-10-15T06:33:32;23.53;;;11.40;;
10643;SDS011;5370;50.132;8.626;2022-10-15T06:36:02;17.80;;;11.23;;
10643;SDS011;5370;50.132;8.626;2022-10-15T06:38:32;19.80;;;11.97;;
10643;SDS011;5370;50.132;8.626;2022-10-15T06:40:57;17.90;;;10.70;;
10643;SDS011;5370;50.132;8.626;2022-10-15T06:43:23;16.30;;;10.73;;
10643;SDS011;5370;50.132;8.626;2022-10-15T06:45:49;18.97;;;11.10;;
10643;SDS011;5370;50.132;8.626;2022-10-15T06:48:15;22.97;;;12.47;;
10643;SDS011;5370;50.132;8.626;2022-10-15T06:50:40;23.93;;;13.40;;
10643;SDS011;5370;50.132;8.626;2022-10-15T06:53:06;18.87;;;11.83;;
10643;SDS011;5370;50.132;8.626;2022-10-15T06:55:32;19.13;;;11.67;;
10643;SDS011;5370;50.132;8.626;2022-10-15T06:57:58;19.83;;;11.00;;
10643;SDS011;5370;50.132;8.626;2022-10-15T07:00:24;15.10;;;9.93;;
10643;SDS011;5370;50.132;8.626;2022-10-15T07:02:50;14.97;;;9.97;;
10643;SDS011;5370;50.132;8.626;2022-10-15T07:05:16;13.90;;;9.80;;
10643;SDS011;5370;50.132;8.626;2022-10-15T07:07:49;15.57;;;9.90;;
10643;SDS011;5370;50.132;8.626;2022-10-15T07:10:18;12.17;;;9.30;;
10643;SDS011;5370;50.132;8.626;2022-10-15T07:12:44;14.87;;;9.43;;
10643;SDS011;5370;50.132;8.626;2022-10-15T07:15:10;13.00;;;8.30;;
10643;SDS011;5370;50.132;8.626;2022-10-15T07:17:35;14.10;;;8.50;;
10643;SDS011;5370;50.132;8.626;2022-10-15T07:20:03;11.80;;;7.87;;
10643;SDS011;5370;50.132;8.626;2022-10-15T07:22:29;12.03;;;8.43;;
10643;SDS011;5370;50.132;8.626;2022-10-15T07:24:55;10.07;;;7.30;;
10643;SDS011;5370;50.132;8.626;2022-10-15T07:27:20;11.23;;;7.23;;
10643;SDS011;5370;50.132;8.626;2022-10-15T07:29:46;12.77;;;6.93;;
10643;SDS011;5370;50.132;8.626;2022-10-15T07:32:12;10.40;;;6.57;;
10643;SDS011;5370;50.132;8.626;2022-10-15T07:34:37;10.20;;;7.60;;
10643;SDS011;5370;50.132;8.626;2022-10-15T07:37:03;10.77;;;6.23;;
10643;SDS011;5370;50.132;8.626;2022-10-15T07:39:28;12.33;;;7.63;;
10643;SDS011;5370;50.132;8.626;2022-10-15T07:41:54;8.47;;;6.73;;
10643;SDS011;5370;50.132;8.626;2022-10-15T07:44:19;9.20;;;6.43;;
10643;SDS011;5370;50.132;8.626;2022-10-15T07:46:45;8.60;;;6.87;;
10643;SDS011;5370;50.132;8.626;2022-10-15T07:49:11;8.53;;;6.40;;
10643;SDS011;5370;50.132;8.626;2022-10-15T07:51:37;8.93;;;6.10;;
10643;SDS011;5370;50.132;8.626;2022-10-15T07:54:02;6.17;;;5.17;;
10643;SDS011;5370;50.132;8.626;2022-10-15T07:56:28;6.40;;;5.60;;
10643;SDS011;5370;50.132;8.626;2022-10-15T07:58:54;5.87;;;4.70;;
10643;SDS011;5370;50.132;8.626;2022-10-15T08:01:19;7.37;;;4.97;;
10643;SDS011;5370;50.132;8.626;2022-10-15T08:03:45;6.30;;;4.77;;
10643;SDS011;5370;50.132;8.626;2022-10-15T08:06:11;7.50;;;4.97;;
10643;SDS011;5370;50.132;8.626;2022-10-15T08:08:37;7.57;;;5.07;;
10643;SDS011;5370;50.132;8.626;2022-10-15T08:11:03;6.30;;;5.20;;
10643;SDS011;5370;50.132;8.626;2022-10-15T08:13:37;9.30;;;4.73;;
10643;SDS011;5370;50.132;8.626;2022-10-15T08:16:05;5.00;;;4.50;;
10643;SDS011;5370;50.132;8.626;2022-10-15T08:18:31;4.83;;;4.43;;
10643;SDS011;5370;50.132;8.626;2022-10-15T08:20:59;4.47;;;4.07;;
10643;SDS011;5370;50.132;8.626;2022-10-15T08:23:25;5.17;;;3.97;;
10643;SDS011;5370;50.132;8.626;2022-10-15T08:25:52;4.18;;;3.42;;
10643;SDS011;5370;50.132;8.626;2022-10-15T08:28:17;4.95;;;4.20;;
10643;SDS011;5370;50.132;8.626;2022-10-15T08:30:43;4.57;;;3.50;;
10643;SDS011;5370;50.132;8.626;2022-10-15T08:33:08;3.97;;;3.58;;
10643;SDS011;5370;50.132;8.626;2022-10-15T08:35:34;4.65;;;3.10;;
10643;SDS011;5370;50.132;8.626;2022-10-15T08:38:02;5.63;;;2.92;;
10643;SDS011;5370;50.132;8.626;2022-10-15T08:40:28;3.83;;;3.40;;
10643;SDS011;5370;50.132;8.626;2022-10-15T08:42:54;5.65;;;3.50;;
10643;SDS011;5370;50.132;8.626;2022-10-15T08:45:27;4.30;;;3.20;;
10643;SDS011;5370;50.132;8.626;2022-10-15T08:47:57;5.28;;;3.28;;
10643;SDS011;5370;50.132;8.626;2022-10-15T08:50:40;3.60;;;2.97;;
10643;SDS011;5370;50.132;8.626;2022-10-15T08:53:14;4.55;;;2.90;;
10643;SDS011;5370;50.132;8.626;2022-10-15T08:55:45;3.55;;;2.30;;
10643;SDS011;5370;50.132;8.626;2022-10-15T09:04:00;3.13;;;2.40;;
10643;SDS011;5370;50.132;8.626;2022-10-15T09:06:46;4.90;;;2.70;;
10643;SDS011;5370;50.132;8.626;2022-10-15T09:09:27;5.45;;;2.40;;
10643;SDS011;5370;50.132;8.626;2022-10-15T09:15:04;3.97;;;1.92;;
10643;SDS011;5370;50.132;8.626;2022-10-15T09:17:37;3.58;;;2.20;;
10643;SDS011;5370;50.132;8.626;2022-10-15T09:20:04;3.60;;;2.20;;
10643;SDS011;5370;50.132;8.626;2022-10-15T09:22:32;2.83;;;2.60;;
10643;SDS011;5370;50.132;8.626;2022-10-15T09:24:58;3.92;;;2.70;;
10643;SDS011;5370;50.132;8.626;2022-10-15T09:27:34;6.35;;;2.45;;
10643;SDS011;5370;50.132;8.626;2022-10-15T09:32:54;3.88;;;2.90;;
10643;SDS011;5370;50.132;8.626;2022-10-15T09:35:27;2.75;;;2.30;;
10643;SDS011;5370;50.132;8.626;2022-10-15T09:43:29;6.05;;;2.72;;
10643;SDS011;5370;50.132;8.626;2022-10-15T09:46:01;5.45;;;2.40;;
10643;SDS011;5370;50.132;8.626;2022-10-15T09:48:29;1.92;;;1.77;;
10643;SDS011;5370;50.132;8.626;2022-10-15T09:51:12;3.63;;;2.15;;
10643;SDS011;5370;50.132;8.626;2022-10-15T09:54:00;2.80;;;1.65;;
10643;SDS011;5370;50.132;8.626;2022-10-15T09:56:35;3.28;;;1.90;;
10643;SDS011;5370;50.132;8.626;2022-10-15T09:59:03;8.90;;;2.15;;
10643;SDS011;5370;50.132;8.626;2022-10-15T10:01:30;4.72;;;2.00;;
10643;SDS011;5370;50.132;8.626;2022-10-15T10:04:14;4.85;;;1.90;;
10643;SDS011;5370;50.132;8.626;2022-10-15T10:06:53;3.63;;;1.55;;
10643;SDS011;5370;50.132;8.626;2022-10-15T10:09:22;1.20;;;1.10;;
10643;SDS011;5370;50.132;8.626;2022-10-15T10:12:04;1.77;;;1.20;;
10643;SDS011;5370;50.132;8.626;2022-10-15T10:14:33;1.88;;;1.45;;
10643;SDS011;5370;50.132;8.626;2022-10-15T10:17:21;1.35;;;0.77;;
10643;SDS011;5370;50.132;8.626;2022-10-15T10:22:44;1.15;;;1.15;;
10643;SDS011;5370;50.132;8.626;2022-10-15T10:25:22;2.55;;;1.15;;
10643;SDS011;5370;50.132;8.626;2022-10-15T10:28:02;6.50;;;1.40;;
10643;SDS011;5370;50.132;8.626;2022-10-15T10:33:12;1.70;;;1.60;;
10643;SDS011;5370;50.132;8.626;2022-10-15T10:35:46;1.92;;;1.83;;
10643;SDS011;5370;50.132;8.626;2022-10-15T10:38:20;1.73;;;1.63;;
10643;SDS011;5370;50.132;8.626;2022-10-15T10:40:55;3.28;;;2.75;;
10643;SDS011;5370;50.132;8.626;2022-10-15T10:43:40;1.70;;;1.60;;
10643;SDS011;5370;50.132;8.626;2022-10-15T10:46:18;2.40;;;2.20;;
10643;SDS011;5370;50.132;8.626;2022-10-15T10:48:53;10.68;;;2.22;;
10643;SDS011;5370;50.132;8.626;2022-10-15T10:53:52;1.92;;;1.80;;
10643;SDS011;5370;50.132;8.626;2022-10-15T10:56:27;11.18;;;5.88;;
10643;SDS011;5370;50.132;8.626;2022-10-15T10:58:59;3.50;;;2.17;;
10643;SDS011;5370;50.132;8.626;2022-10-15T11:01:27;6.43;;;1.92;;
10643;SDS011;5370;50.132;8.626;2022-10-15T11:03:53;7.10;;;2.33;;
10643;SDS011;5370;50.132;8.626;2022-10-15T11:06:22;2.25;;;1.30;;
10643;SDS011;5370;50.132;8.626;2022-10-15T11:21:00;2.63;;;1.60;;
10643;SDS011;5370;50.132;8.626;2022-10-15T11:23:49;4.30;;;1.88;;
10643;SDS011;5370;50.132;8.626;2022-10-15T11:26:47;3.58;;;1.48;;
10643;SDS011;5370;50.132;8.626;2022-10-15T11:29:27;1.60;;;1.20;;
10643;SDS011;5370;50.132;8.626;2022-10-15T11:38:03;6.03;;;3.80;;
10643;SDS011;5370;50.132;8.626;2022-10-15T11:43:36;9.57;;;4.43;;
10643;SDS011;5370;50.132;8.626;2022-10-15T11:54:41;2.67;;;1.20;;
10643;SDS011;5370;50.132;8.626;2022-10-15T11:57:12;1.90;;;1.67;;
10643;SDS011;5370;50.132;8.626;2022-10-15T11:59:51;2.28;;;1.10;;
10643;SDS011;5370;50.132;8.626;2022-10-15T12:02:35;2.45;;;1.30;;
10643;SDS011;5370;50.132;8.626;2022-10-15T12:05:13;2.45;;;1.42;;
10643;SDS011;5370;50.132;8.626;2022-10-15T12:07:47;2.70;;;1.50;;
10643;SDS011;5370;50.132;8.626;2022-10-15T12:18:22;1.40;;;1.30;;
10643;SDS011;5370;50.132;8.626;2022-10-15T12:21:00;2.10;;;1.40;;
10643;SDS011;5370;50.132;8.626;2022-10-15T12:26:01;2.22;;;1.35;;
10643;SDS011;5370;50.132;8.626;2022-10-15T12:28:47;4.68;;;2.42;;
10643;SDS011;5370;50.132;8.626;2022-10-15T12:31:16;3.75;;;1.58;;
10643;SDS011;5370;50.132;8.626;2022-10-15T12:33:46;3.75;;;1.50;;
10643;SDS011;5370;50.132;8.626;2022-10-15T12:36:25;2.10;;;1.90;;
10643;SDS011;5370;50.132;8.626;2022-10-15T12:41:43;2.95;;;2.00;;
10643;SDS011;5370;50.132;8.626;2022-10-15T12:44:27;3.40;;;1.90;;
10643;SDS011;5370;50.132;8.626;2022-10-15T12:46:54;2.45;;;2.25;;
10643;SDS011;5370;50.132;8.626;2022-10-15T12:51:55;2.33;;;1.50;;
10643;SDS011;5370;50.132;8.626;2022-10-15T12:57:02;1.73;;;1.42;;
10643;SDS011;5370;50.132;8.626;2022-10-15T13:02:38;4.88;;;1.27;;
10643;SDS011;5370;50.132;8.626;2022-10-15T13:05:08;1.70;;;1.50;;
10643;SDS011;5370;50.132;8.626;2022-10-15T13:07:54;2.65;;;1.23;;
10643;SDS011;5370;50.132;8.626;2022-10-15T13:11:11;2.72;;;1.33;;
10643;SDS011;5370;50.132;8.626;2022-10-15T13:13:18;1.98;;;1.40;;
10643;SDS011;5370;50.132;8.626;2022-10-15T13:15:59;1.55;;;1.38;;
10643;SDS011;5370;50.132;8.626;2022-10-15T13:18:32;2.08;;;0.95;;
10643;SDS011;5370;50.132;8.626;2022-10-15T13:20:58;4.47;;;1.42;;
10643;SDS011;5370;50.132;8.626;2022-10-15T13:23:25;1.30;;;1.20;;
10643;SDS011;5370;50.132;8.626;2022-10-15T13:26:16;2.42;;;1.33;;
10643;SDS011;5370;50.132;8.626;2022-10-15T13:28:47;4.82;;;1.33;;
10643;SDS011;5370;50.132;8.626;2022-10-15T13:31:16;6.38;;;1.65;;
10643;SDS011;5370;50.132;8.626;2022-10-15T13:33:52;2.35;;;1.45;;
10643;SDS011;5370;50.132;8.626;2022-10-15T13:36:23;3.38;;;1.30;;
10643;SDS011;5370;50.132;8.626;2022-10-15T13:38:56;1.13;;;1.08;;
10643;SDS011;5370;50.132;8.626;2022-10-15T13:41:29;4.93;;;1.25;;
10643;SDS011;5370;50.132;8.626;2022-10-15T13:43:57;9.02;;;3.08;;
10643;SDS011;5370;50.132;8.626;2022-10-15T13:46:25;2.53;;;1.27;;
10643;SDS011;5370;50.132;8.626;2022-10-15T13:48:57;3.28;;;1.23;;
10643;SDS011;5370;50.132;8.626;2022-10-15T13:51:40;2.47;;;1.17;;
10643;SDS011;5370;50.132;8.626;2022-10-15T13:54:09;3.50;;;1.58;;
10643;SDS011;5370;50.132;8.626;2022-10-15T13:56:45;4.32;;;1.05;;
10643;SDS011;5370;50.132;8.626;2022-10-15T13:59:16;2.25;;;1.48;;
10643;SDS011;5370;50.132;8.626;2022-10-15T14:01:46;4.22;;;2.42;;
10643;SDS011;5370;50.132;8.626;2022-10-15T14:04:16;4.25;;;1.50;;
10643;SDS011;5370;50.132;8.626;2022-10-15T14:06:51;1.92;;;1.25;;
10643;SDS011;5370;50.132;8.626;2022-10-15T14:09:21;1.67;;;1.27;;
10643;SDS011;5370;50.132;8.626;2022-10-15T14:11:51;2.17;;;1.38;;
10643;SDS011;5370;50.132;8.626;2022-10-15T14:14:30;1.98;;;1.25;;
10643;SDS011;5370;50.132;8.626;2022-10-15T14:16:57;2.33;;;1.10;;
10643;SDS011;5370;50.132;8.626;2022-10-15T14:19:24;3.30;;;0.68;;
10643;SDS011;5370;50.132;8.626;2022-10-15T14:21:57;4.13;;;0.68;;
10643;SDS011;5370;50.132;8.626;2022-10-15T14:24:49;0.90;;;0.50;;
10643;SDS011;5370;50.132;8.626;2022-10-15T14:27:16;1.23;;;0.30;;
10643;SDS011;5370;50.132;8.626;2022-10-15T14:29:46;0.47;;;0.43;;
10643;SDS011;5370;50.132;8.626;2022-10-15T14:32:17;1.52;;;0.50;;
10643;SDS011;5370;50.132;8.626;2022-10-15T14:34:44;1.27;;;0.30;;
10643;SDS011;5370;50.132;8.626;2022-10-15T14:42:41;0.55;;;0.38;;
10643;SDS011;5370;50.132;8.626;2022-10-15T14:45:19;0.60;;;0.50;;
10643;SDS011;5370;50.132;8.626;2022-10-15T14:48:27;1.48;;;0.50;;
10643;SDS011;5370;50.132;8.626;2022-10-15T14:50:40;0.70;;;0.52;;
10643;SDS011;5370;50.132;8.626;2022-10-15T14:53:08;0.52;;;0.30;;
10643;SDS011;5370;50.132;8.626;2022-10-15T14:55:41;1.98;;;0.40;;
10643;SDS011;5370;50.132;8.626;2022-10-15T14:58:08;1.92;;;1.67;;
10643;SDS011;5370;50.132;8.626;2022-10-15T15:00:42;3.40;;;0.80;;
10643;SDS011;5370;50.132;8.626;2022-10-15T15:03:14;3.83;;;0.70;;
10643;SDS011;5370;50.132;8.626;2022-10-15T15:05:43;2.17;;;0.40;;
10643;SDS011;5370;50.132;8.626;2022-10-15T15:08:13;1.08;;;0.82;;
10643;SDS011;5370;50.132;8.626;2022-10-15T15:10:39;0.40;;;0.35;;
10643;SDS011;5370;50.132;8.626;2022-10-15T15:13:06;0.52;;;0.50;;
10643;SDS011;5370;50.132;8.626;2022-10-15T15:15:47;0.50;;;0.30;;
10643;SDS011;5370;50.132;8.626;2022-10-15T15:18:13;0.43;;;0.43;;
10643;SDS011;5370;50.132;8.626;2022-10-15T15:20:40;2.10;;;0.60;;
10643;SDS011;5370;50.132;8.626;2022-10-15T15:23:08;0.40;;;0.40;;
10643;SDS011;5370;50.132;8.626;2022-10-15T15:25:38;0.60;;;0.60;;
10643;SDS011;5370;50.132;8.626;2022-10-15T15:28:07;0.90;;;0.68;;
10643;SDS011;5370;50.132;8.626;2022-10-15T15:30:40;2.97;;;0.63;;
10643;SDS011;5370;50.132;8.626;2022-10-15T15:33:09;2.60;;;0.57;;
10643;SDS011;5370;50.132;8.626;2022-10-15T15:35:38;2.70;;;0.43;;
10643;SDS011;5370;50.132;8.626;2022-10-15T15:38:14;0.82;;;0.50;;
10643;SDS011;5370;50.132;8.626;2022-10-15T15:40:41;1.83;;;1.02;;
10643;SDS011;5370;50.132;8.626;2022-10-15T15:43:07;2.85;;;0.82;;
10643;SDS011;5370;50.132;8.626;2022-10-15T15:45:35;2.28;;;0.70;;
10643;SDS011;5370;50.132;8.626;2022-10-15T15:48:01;1.35;;;0.70;;
10643;SDS011;5370;50.132;8.626;2022-10-15T15:50:27;2.25;;;0.68;;
10643;SDS011;5370;50.132;8.626;2022-10-15T15:52:53;3.75;;;0.50;;
10643;SDS011;5370;50.132;8.626;2022-10-15T15:55:19;4.05;;;0.90;;
10643;SDS011;5370;50.132;8.626;2022-10-15T15:57:44;0.50;;;0.50;;
10643;SDS011;5370;50.132;8.626;2022-10-15T16:00:10;3.65;;;0.70;;
10643;SDS011;5370;50.132;8.626;2022-10-15T16:02:37;1.00;;;0.85;;
10643;SDS011;5370;50.132;8.626;2022-10-15T16:05:04;1.35;;;1.20;;
10643;SDS011;5370;50.132;8.626;2022-10-15T16:07:31;5.07;;;1.80;;
10643;SDS011;5370;50.132;8.626;2022-10-15T16:09:57;2.50;;;1.40;;
10643;SDS011;5370;50.132;8.626;2022-10-15T16:12:22;1.50;;;1.00;;
10643;SDS011;5370;50.132;8.626;2022-10-15T16:14:48;3.67;;;0.80;;
10643;SDS011;5370;50.132;8.626;2022-10-15T16:17:13;0.55;;;0.45;;
10643;SDS011;5370;50.132;8.626;2022-10-15T16:19:39;1.08;;;0.80;;
10643;SDS011;5370;50.132;8.626;2022-10-15T16:22:04;0.70;;;0.70;;
10643;SDS011;5370;50.132;8.626;2022-10-15T16:24:31;1.33;;;0.45;;
10643;SDS011;5370;50.132;8.626;2022-10-15T16:26:57;0.68;;;0.40;;
10643;SDS011;5370;50.132;8.626;2022-10-15T16:29:22;0.40;;;0.40;;
10643;SDS011;5370;50.132;8.626;2022-10-15T16:31:48;1.42;;;0.43;;
10643;SDS011;5370;50.132;8.626;2022-10-15T16:34:16;1.67;;;0.57;;
10643;SDS011;5370;50.132;8.626;2022-10-15T16:36:42;1.05;;;0.95;;
10643;SDS011;5370;50.132;8.626;2022-10-15T16:39:08;2.67;;;1.23;;
10643;SDS011;5370;50.132;8.626;2022-10-15T16:41:34;0.98;;;0.70;;
10643;SDS011;5370;50.132;8.626;2022-10-15T16:43:59;4.13;;;0.98;;
10643;SDS011;5370;50.132;8.626;2022-10-15T16:46:25;2.97;;;1.00;;
10643;SDS011;5370;50.132;8.626;2022-10-15T16:48:51;3.42;;;1.30;;